createdAt,value
2018-03-16T00:00:06.873Z,90.20
2018-03-16T00:02:34.367Z,90.20
2018-03-16T00:05:01.843Z,90.20
2018-03-16T00:07:29.353Z,90.20
2018-03-16T00:09:56.821Z,90.20
2018-03-16T00:12:25.074Z,90.20
2018-03-16T00:14:53.323Z,90.30
2018-03-16T00:17:20.823Z,90.10
2018-03-16T00:19:48.390Z,90.10
2018-03-16T00:22:22.548Z,90.20
2018-03-16T00:24:50.010Z,90.10
2018-03-16T00:27:17.506Z,90.20
2018-03-16T00:29:44.962Z,90.30
2018-03-16T00:32:12.430Z,90.40
2018-03-16T00:34:40.691Z,90.60
2018-03-16T00:37:08.154Z,90.50
2018-03-16T00:39:35.717Z,90.50
2018-03-16T00:42:04.029Z,90.80
2018-03-16T00:44:31.511Z,90.50
2018-03-16T00:46:58.965Z,90.50
2018-03-16T00:49:26.447Z,90.50
2018-03-16T00:51:53.903Z,90.50
2018-03-16T00:54:21.407Z,90.50
2018-03-16T00:56:49.683Z,90.80
2018-03-16T00:59:17.938Z,91.00
2018-03-16T01:01:45.386Z,91.00
2018-03-16T01:04:12.842Z,91.10
2018-03-16T01:06:40.332Z,91.20
2018-03-16T01:09:08.562Z,91.50
2018-03-16T01:11:36.134Z,91.50
2018-03-16T01:14:03.593Z,91.60
2018-03-16T01:16:31.154Z,91.80
2018-03-16T01:18:58.614Z,92.00
2018-03-16T01:21:26.109Z,92.10
2018-03-16T01:23:53.627Z,92.10
2018-03-16T01:26:21.135Z,92.00
2018-03-16T01:28:48.599Z,91.80
2018-03-16T01:31:16.093Z,91.80
2018-03-16T01:33:43.622Z,91.70
2018-03-16T01:36:11.084Z,91.80
2018-03-16T01:38:38.581Z,92.10
2018-03-16T01:41:06.046Z,92.40
2018-03-16T01:43:33.603Z,92.70
2018-03-16T01:46:01.145Z,93.00
2018-03-16T01:48:28.644Z,93.30
2018-03-16T01:50:56.871Z,93.50
2018-03-16T01:53:24.389Z,93.50
2018-03-16T01:55:51.906Z,93.80
2018-03-16T01:58:19.389Z,93.80
2018-03-16T02:00:47.646Z,94.30
2018-03-16T02:03:15.618Z,94.30
2018-03-16T02:05:43.171Z,94.10
2018-03-16T02:08:12.165Z,94.80
2018-03-16T02:10:39.686Z,94.70
2018-03-16T02:13:07.160Z,94.60
2018-03-16T02:15:34.613Z,94.80
2018-03-16T02:18:02.102Z,94.90
2018-03-16T02:20:29.580Z,95.10
2018-03-16T02:22:57.834Z,95.60
2018-03-16T02:25:25.323Z,95.60
2018-03-16T02:27:52.785Z,95.70
2018-03-16T02:30:20.325Z,95.90
2018-03-16T02:32:48.554Z,96.00
2018-03-16T02:35:16.042Z,95.90
2018-03-16T02:37:43.530Z,96.10
2018-03-16T02:40:11.011Z,96.40
2018-03-16T02:42:38.503Z,96.10
2018-03-16T02:45:05.958Z,96.40
2018-03-16T02:47:33.458Z,96.40
2018-03-16T02:50:00.915Z,96.50
2018-03-16T02:52:28.407Z,96.40
2018-03-16T02:54:55.867Z,96.40
2018-03-16T02:57:23.356Z,96.50
2018-03-16T02:59:50.810Z,96.50
2018-03-16T03:02:18.452Z,96.50
2018-03-16T03:04:45.962Z,96.60
2018-03-16T03:07:14.202Z,96.50
2018-03-16T03:09:41.684Z,96.50
2018-03-16T03:12:09.907Z,97.00
2018-03-16T03:14:37.382Z,96.70
2018-03-16T03:17:04.846Z,96.60
2018-03-16T03:19:33.095Z,96.50
2018-03-16T03:22:00.564Z,96.50
2018-03-16T03:24:28.050Z,96.50
2018-03-16T03:26:55.500Z,96.50
2018-03-16T03:29:23.026Z,97.00
2018-03-16T03:31:50.482Z,97.40
2018-03-16T03:34:17.954Z,97.60
2018-03-16T03:36:45.418Z,97.50
2018-03-16T03:39:12.879Z,97.40
2018-03-16T03:41:40.352Z,97.50
2018-03-16T03:44:07.901Z,97.70
2018-03-16T03:46:35.410Z,97.80
2018-03-16T03:49:02.886Z,98.00
2018-03-16T03:51:30.349Z,98.00
2018-03-16T03:53:57.821Z,97.90
2018-03-16T03:56:25.278Z,98.00
2018-03-16T03:58:52.778Z,97.90
2018-03-16T04:01:21.010Z,97.50
2018-03-16T04:03:48.457Z,97.50
2018-03-16T04:06:15.943Z,97.30
2018-03-16T04:08:43.398Z,97.30
2018-03-16T04:11:10.881Z,97.30
2018-03-16T04:13:39.106Z,97.50
2018-03-16T04:16:06.642Z,97.50
2018-03-16T04:18:34.093Z,97.50
2018-03-16T04:21:01.605Z,97.40
2018-03-16T04:23:29.080Z,97.30
2018-03-16T04:25:56.571Z,97.10
2018-03-16T04:28:24.042Z,96.80
2018-03-16T04:30:51.515Z,96.90
2018-03-16T04:33:18.994Z,96.90
2018-03-16T04:35:46.484Z,96.90
2018-03-16T04:38:14.710Z,97.30
2018-03-16T04:40:42.199Z,97.30
2018-03-16T04:43:09.663Z,97.40
2018-03-16T04:45:37.953Z,97.70
2018-03-16T04:48:06.178Z,97.70
2018-03-16T04:50:33.643Z,97.70
2018-03-16T04:53:01.143Z,97.80
2018-03-16T04:55:29.388Z,97.80
2018-03-16T04:57:56.879Z,97.80
2018-03-16T05:00:25.103Z,98.00
2018-03-16T05:02:52.587Z,98.00
2018-03-16T05:05:20.137Z,98.10
2018-03-16T05:07:47.619Z,98.20
2018-03-16T05:10:15.838Z,98.30
2018-03-16T05:12:43.343Z,98.30
2018-03-16T05:15:11.566Z,98.40
2018-03-16T05:17:39.169Z,98.30
2018-03-16T05:20:06.628Z,98.30
2018-03-16T05:22:34.086Z,98.40
2018-03-16T05:25:01.574Z,98.50
2018-03-16T05:27:29.800Z,98.60
2018-03-16T05:29:57.274Z,98.60
2018-03-16T05:32:24.826Z,98.70
2018-03-16T05:34:52.310Z,98.90
2018-03-16T05:37:20.558Z,99.20
2018-03-16T05:39:48.018Z,98.90
2018-03-16T05:42:15.589Z,98.90
2018-03-16T05:44:43.042Z,98.90
2018-03-16T05:47:10.546Z,98.90
2018-03-16T05:49:38.051Z,98.90
2018-03-16T05:52:05.510Z,98.90
2018-03-16T05:54:33.010Z,99.00
2018-03-16T05:57:01.226Z,99.00
2018-03-16T05:59:28.707Z,99.00
2018-03-16T06:01:56.158Z,99.10
2018-03-16T06:04:23.638Z,99.10
2018-03-16T06:06:51.892Z,99.20
2018-03-16T06:09:19.386Z,99.20
2018-03-16T06:11:46.908Z,99.20
2018-03-16T06:14:14.411Z,99.30
2018-03-16T06:16:41.874Z,99.30
2018-03-16T06:19:09.363Z,99.30
2018-03-16T06:21:36.842Z,99.30
2018-03-16T06:24:04.342Z,99.30
2018-03-16T06:26:31.848Z,99.30
2018-03-16T06:28:59.315Z,99.30
2018-03-16T06:31:27.574Z,99.30
2018-03-16T06:33:55.086Z,99.30
2018-03-16T06:36:23.311Z,99.40
2018-03-16T06:38:50.794Z,99.40
2018-03-16T06:41:18.270Z,99.30
2018-03-16T06:43:46.530Z,99.20
2018-03-16T06:46:13.982Z,99.20
2018-03-16T06:48:41.473Z,98.90
2018-03-16T06:51:08.946Z,98.80
2018-03-16T06:53:36.435Z,98.50
2018-03-16T06:56:03.892Z,98.50
2018-03-16T06:58:31.369Z,97.90
2018-03-16T07:00:58.855Z,96.80
2018-03-16T07:03:27.105Z,95.50
2018-03-16T07:05:55.370Z,95.10
2018-03-16T07:08:22.850Z,95.10
2018-03-16T07:10:51.105Z,94.80
2018-03-16T07:13:18.684Z,94.80
2018-03-16T07:15:46.931Z,93.90
2018-03-16T07:18:14.421Z,93.90
2018-03-16T07:20:42.654Z,93.80
2018-03-16T07:23:10.153Z,93.80
2018-03-16T07:25:37.610Z,93.70
2018-03-16T07:28:05.854Z,93.70
2018-03-16T07:30:33.352Z,93.70
2018-03-16T07:33:01.593Z,93.20
2018-03-16T07:35:29.058Z,93.20
2018-03-16T07:37:56.547Z,93.40
2018-03-16T07:40:24.766Z,93.00
2018-03-16T07:42:52.233Z,93.00
2018-03-16T07:45:25.398Z,93.00
2018-03-16T07:47:52.889Z,92.80
2018-03-16T07:50:20.380Z,92.80
2018-03-16T07:52:48.622Z,92.60
2018-03-16T07:55:16.115Z,92.60
2018-03-16T07:57:44.378Z,92.40
2018-03-16T08:00:12.654Z,92.30
2018-03-16T08:02:40.914Z,92.30
2018-03-16T08:05:09.898Z,92.00
2018-03-16T08:07:37.373Z,92.00
2018-03-16T08:10:06.334Z,92.40
2018-03-16T08:12:33.834Z,92.00
2018-03-16T08:15:02.057Z,91.00
2018-03-16T08:17:29.527Z,91.00
2018-03-16T08:19:57.007Z,90.50
2018-03-16T08:22:24.502Z,90.20
2018-03-16T08:24:52.013Z,89.10
2018-03-16T08:27:19.514Z,89.20
2018-03-16T08:29:46.983Z,88.20
2018-03-16T08:32:14.459Z,87.00
2018-03-16T08:34:41.962Z,87.70
2018-03-16T08:37:09.433Z,88.40
2018-03-16T08:39:37.694Z,92.60
2018-03-16T08:42:05.939Z,93.30
2018-03-16T08:44:33.457Z,93.30
2018-03-16T08:47:00.918Z,93.70
2018-03-16T08:49:28.394Z,94.30
2018-03-16T08:51:55.895Z,94.10
2018-03-16T08:54:23.462Z,94.40
2018-03-16T08:56:50.976Z,94.40
2018-03-16T08:59:18.483Z,94.00
2018-03-16T09:01:46.746Z,93.90
2018-03-16T09:04:14.246Z,93.90
2018-03-16T09:06:42.467Z,93.30
2018-03-16T09:09:09.947Z,93.30
2018-03-16T09:11:37.434Z,93.60
2018-03-16T09:14:04.935Z,92.80
2018-03-16T09:16:32.391Z,91.60
2018-03-16T09:18:59.888Z,91.60
2018-03-16T09:21:28.125Z,89.20
2018-03-16T09:23:55.607Z,89.20
2018-03-16T09:26:23.074Z,89.30
2018-03-16T09:28:51.333Z,89.90
2018-03-16T09:31:18.921Z,89.90
2018-03-16T09:33:47.170Z,88.10
2018-03-16T09:36:14.629Z,88.00
2018-03-16T09:38:42.196Z,84.20
2018-03-16T09:41:09.679Z,84.90
2018-03-16T09:43:37.143Z,85.40
2018-03-16T09:46:04.653Z,83.50
2018-03-16T09:48:32.118Z,83.40
2018-03-16T09:50:59.608Z,83.60
2018-03-16T09:53:30.214Z,80.60
2018-03-16T09:55:57.706Z,80.60
2018-03-16T09:58:25.166Z,80.00
2018-03-16T10:00:52.644Z,79.50
2018-03-16T10:03:20.095Z,79.70
2018-03-16T10:05:47.605Z,79.70
2018-03-16T10:08:15.071Z,78.40
2018-03-16T10:10:43.476Z,76.10
2018-03-16T10:13:10.943Z,73.00
2018-03-16T10:15:38.435Z,74.40
2018-03-16T10:18:05.901Z,74.20
2018-03-16T10:20:33.366Z,76.00
2018-03-16T10:23:00.854Z,76.40
2018-03-16T10:25:29.100Z,76.70
2018-03-16T10:27:56.567Z,76.70
2018-03-16T10:30:24.023Z,77.50
2018-03-16T10:32:51.575Z,78.60
2018-03-16T10:35:19.043Z,80.20
2018-03-16T10:37:46.537Z,79.80
2018-03-16T10:40:13.986Z,78.00
2018-03-16T10:42:41.498Z,77.00
2018-03-16T10:45:08.966Z,75.30
2018-03-16T10:47:36.459Z,73.20
2018-03-16T10:50:03.914Z,72.10
2018-03-16T10:52:31.410Z,70.90
2018-03-16T10:54:58.896Z,72.20
2018-03-16T10:57:26.374Z,70.60
2018-03-16T10:59:54.662Z,68.50
2018-03-16T11:02:22.151Z,68.50
2018-03-16T11:04:55.230Z,66.90
2018-03-16T11:07:22.734Z,65.80
2018-03-16T11:09:50.201Z,64.60
2018-03-16T11:12:18.446Z,63.20
2018-03-16T11:14:45.930Z,63.30
2018-03-16T11:17:13.439Z,64.10
2018-03-16T11:19:41.689Z,66.00
2018-03-16T11:22:09.908Z,67.80
2018-03-16T11:24:37.385Z,67.10
2018-03-16T11:27:04.863Z,71.20
2018-03-16T11:29:32.343Z,78.90
2018-03-16T11:32:00.585Z,86.80
2018-03-16T11:34:28.088Z,86.80
2018-03-16T11:36:55.564Z,87.30
2018-03-16T11:39:23.046Z,86.90
2018-03-16T11:41:50.512Z,84.30
2018-03-16T11:44:18.030Z,82.00
2018-03-16T11:46:45.490Z,79.40
2018-03-16T11:49:12.984Z,79.10
2018-03-16T11:51:41.190Z,76.40
2018-03-16T11:54:08.698Z,75.70
2018-03-16T11:56:36.198Z,72.20
2018-03-16T11:59:04.436Z,70.20
2018-03-16T12:01:32.027Z,70.20
2018-03-16T12:03:59.484Z,68.60
2018-03-16T12:06:27.738Z,65.10
2018-03-16T12:08:55.287Z,65.10
2018-03-16T12:11:22.789Z,63.40
2018-03-16T12:13:51.011Z,64.10
2018-03-16T12:16:18.522Z,64.10
2018-03-16T12:18:46.756Z,65.30
2018-03-16T12:21:14.789Z,65.30
2018-03-16T12:23:42.312Z,63.50
2018-03-16T12:26:09.814Z,60.90
2018-03-16T12:28:49.694Z,59.80
2018-03-16T12:31:04.799Z,57.00
2018-03-16T12:33:33.179Z,53.00
2018-03-16T12:36:01.426Z,51.60
2018-03-16T12:38:28.919Z,51.50
2018-03-16T12:40:57.144Z,38.60
2018-03-16T12:43:24.611Z,38.50
2018-03-16T12:45:52.109Z,31.50
2018-03-16T12:48:20.403Z,25.80
2018-03-16T12:50:47.912Z,25.80
2018-03-16T12:53:15.393Z,28.40
2018-03-16T12:55:43.646Z,35.90
2018-03-16T12:58:11.117Z,35.90
2018-03-16T13:00:38.703Z,35.20
2018-03-16T13:03:06.921Z,25.20
2018-03-16T13:05:34.378Z,25.10
2018-03-16T13:08:01.893Z,24.70
2018-03-16T13:10:30.102Z,24.40
2018-03-16T13:12:57.606Z,24.30
2018-03-16T13:15:26.174Z,27.00
2018-03-16T13:17:53.678Z,27.00
2018-03-16T13:20:21.134Z,24.20
2018-03-16T13:22:48.632Z,22.30
2018-03-16T13:25:16.101Z,25.30
2018-03-16T13:27:43.615Z,28.50
2018-03-16T13:30:11.080Z,33.00
2018-03-16T13:32:38.567Z,33.80
2018-03-16T13:35:06.035Z,29.30
2018-03-16T13:37:33.551Z,24.50
2018-03-16T13:40:01.012Z,24.30
2018-03-16T13:42:28.481Z,27.40
2018-03-16T13:44:55.986Z,30.50
2018-03-16T13:47:24.211Z,40.80
2018-03-16T13:49:51.754Z,40.50
2018-03-16T13:52:19.280Z,44.50
2018-03-16T13:54:46.778Z,47.90
2018-03-16T13:57:14.277Z,52.60
2018-03-16T13:59:41.724Z,59.90
2018-03-16T14:02:09.243Z,68.90
2018-03-16T14:04:36.718Z,74.80
2018-03-16T14:07:04.598Z,76.50
2018-03-16T14:09:32.080Z,79.40
2018-03-16T14:11:59.579Z,78.20
2018-03-16T14:14:27.151Z,74.10
2018-03-16T14:16:54.663Z,72.20
2018-03-16T14:19:22.929Z,74.00
2018-03-16T14:21:50.436Z,73.30
2018-03-16T14:24:18.004Z,72.30
2018-03-16T14:26:45.492Z,73.40
2018-03-16T14:29:12.965Z,77.80
2018-03-16T14:31:40.480Z,82.70
2018-03-16T14:34:07.971Z,85.50
2018-03-16T14:36:36.361Z,81.00
2018-03-16T14:39:03.846Z,79.20
2018-03-16T14:41:31.325Z,80.40
2018-03-16T14:43:58.843Z,82.70
2018-03-16T14:46:26.353Z,84.10
2018-03-16T14:48:53.854Z,84.60
2018-03-16T14:51:21.400Z,84.20
2018-03-16T14:53:48.878Z,83.70
2018-03-16T14:56:16.358Z,76.40
2018-03-16T14:58:43.882Z,74.10
2018-03-16T15:01:11.375Z,66.10
2018-03-16T15:03:39.636Z,38.40
2018-03-16T15:06:07.918Z,34.40
2018-03-16T15:08:36.182Z,27.10
2018-03-16T15:11:03.807Z,27.00
2018-03-16T15:13:31.308Z,26.20
2018-03-16T15:15:59.538Z,23.40
2018-03-16T15:18:27.057Z,23.80
2018-03-16T15:20:55.292Z,20.20
2018-03-16T15:23:22.779Z,20.10
2018-03-16T15:25:51.059Z,19.20
2018-03-16T15:28:19.271Z,22.50
2018-03-16T15:30:46.759Z,22.50
2018-03-16T15:33:14.248Z,26.40
2018-03-16T15:35:42.537Z,36.00
2018-03-16T15:38:10.760Z,41.30
2018-03-16T15:40:38.234Z,41.20
2018-03-16T15:43:05.759Z,45.00
2018-03-16T15:45:33.238Z,45.00
2018-03-16T15:48:00.742Z,41.00
2018-03-16T15:50:28.299Z,37.40
2018-03-16T15:52:56.576Z,42.20
2018-03-16T15:55:24.799Z,46.20
2018-03-16T15:57:52.306Z,46.20
2018-03-16T16:00:20.982Z,51.30
2018-03-16T16:02:49.268Z,48.90
2018-03-16T16:05:17.502Z,39.40
2018-03-16T16:07:45.098Z,39.30
2018-03-16T16:10:13.327Z,35.20
2018-03-16T16:12:41.395Z,35.00
2018-03-16T16:15:09.028Z,32.10
2018-03-16T16:17:36.474Z,29.60
2018-03-16T16:20:04.754Z,27.20
2018-03-16T16:22:33.116Z,26.60
2018-03-16T16:25:00.604Z,26.60
2018-03-16T16:27:28.072Z,25.20
2018-03-16T16:29:55.566Z,24.10
2018-03-16T16:32:23.084Z,25.10
2018-03-16T16:34:50.586Z,26.30
2018-03-16T16:37:18.097Z,28.30
2018-03-16T16:39:45.623Z,30.40
2018-03-16T16:42:13.116Z,33.90
2018-03-16T16:44:40.614Z,38.30
2018-03-16T16:47:08.089Z,42.80
2018-03-16T16:49:35.623Z,46.10
2018-03-16T16:52:03.099Z,50.10
2018-03-16T16:54:30.564Z,53.20
2018-03-16T16:56:58.061Z,55.10
2018-03-16T16:59:25.631Z,57.40
2018-03-16T17:01:53.125Z,58.60
2018-03-16T17:04:20.575Z,59.50
2018-03-16T17:06:48.081Z,60.70
2018-03-16T17:09:15.566Z,63.00
2018-03-16T17:11:43.121Z,63.70
2018-03-16T17:14:10.588Z,64.80
2018-03-16T17:16:38.131Z,66.30
2018-03-16T17:19:05.599Z,66.60
2018-03-16T17:21:33.258Z,68.50
2018-03-16T17:24:00.734Z,69.20
2018-03-16T17:26:28.291Z,69.80
2018-03-16T17:28:55.877Z,70.40
2018-03-16T17:31:23.453Z,71.80
2018-03-16T17:33:50.954Z,72.80
2018-03-16T17:36:18.438Z,74.30
2018-03-16T17:38:45.976Z,74.70
2018-03-16T17:41:13.447Z,75.20
2018-03-16T17:43:40.979Z,75.80
2018-03-16T17:46:08.438Z,76.50
2018-03-16T17:48:35.982Z,77.40
2018-03-16T17:51:03.587Z,76.90
2018-03-16T17:53:31.079Z,77.30
2018-03-16T17:55:59.348Z,77.80
2018-03-16T17:58:26.816Z,77.70
2018-03-16T18:00:55.078Z,79.60
2018-03-16T18:03:22.566Z,79.60
2018-03-16T18:05:50.838Z,79.10
2018-03-16T18:08:18.327Z,79.10
2018-03-16T18:10:45.955Z,78.70
2018-03-16T18:13:14.182Z,79.60
2018-03-16T18:15:41.689Z,79.60
2018-03-16T18:18:09.944Z,80.60
2018-03-16T18:20:38.233Z,82.00
2018-03-16T18:23:05.734Z,81.30
2018-03-16T18:25:33.254Z,81.90
2018-03-16T18:28:01.512Z,83.00
2018-03-16T18:30:29.021Z,82.90
2018-03-16T18:32:56.509Z,83.10
2018-03-16T18:35:24.326Z,83.10
2018-03-16T18:37:51.858Z,83.20
2018-03-16T18:40:19.339Z,83.40
2018-03-16T18:42:47.563Z,84.40
2018-03-16T18:45:15.069Z,84.40
2018-03-16T18:47:43.357Z,85.00
2018-03-16T18:50:10.832Z,85.00
2018-03-16T18:52:38.343Z,85.50
2018-03-16T18:55:05.830Z,86.00
2018-03-16T18:57:33.316Z,86.50
2018-03-16T19:00:00.825Z,86.80
2018-03-16T19:02:29.071Z,87.60
2018-03-16T19:04:56.595Z,87.60
2018-03-16T19:07:24.095Z,87.90
2018-03-16T19:09:51.587Z,88.30
2018-03-16T19:12:19.941Z,88.40
2018-03-16T19:14:47.437Z,88.30
2018-03-16T19:17:14.966Z,89.00
2018-03-16T19:19:42.547Z,89.50
2018-03-16T19:22:10.822Z,90.00
2018-03-16T19:24:39.064Z,90.10
2018-03-16T19:27:06.557Z,90.10
2018-03-16T19:29:35.127Z,90.00
2018-03-16T19:32:03.429Z,90.00
2018-03-16T19:34:30.978Z,89.90
2018-03-16T19:36:58.480Z,90.20
2018-03-16T19:39:26.053Z,90.00
2018-03-16T19:41:53.691Z,90.00
2018-03-16T19:44:21.206Z,89.70
2018-03-16T19:46:49.460Z,89.90
2018-03-16T19:49:16.978Z,89.80
2018-03-16T19:51:44.448Z,90.00
2018-03-16T19:54:11.957Z,90.10
2018-03-16T19:56:40.211Z,90.80
2018-03-16T19:59:07.783Z,90.80
2018-03-16T20:01:35.318Z,90.80
2018-03-16T20:04:02.828Z,90.80
2018-03-16T20:06:30.345Z,91.00
2018-03-16T20:08:57.816Z,91.00
2018-03-16T20:11:26.085Z,91.70
2018-03-16T20:13:53.571Z,91.40
2018-03-16T20:16:21.827Z,91.10
2018-03-16T20:18:49.349Z,91.10
2018-03-16T20:21:16.832Z,90.70
2018-03-16T20:23:44.317Z,91.10
2018-03-16T20:26:12.592Z,91.40
2018-03-16T20:28:40.832Z,91.50
2018-03-16T20:31:08.358Z,91.50
2018-03-16T20:33:35.882Z,91.60
2018-03-16T20:36:04.159Z,92.00
2018-03-16T20:38:32.445Z,92.10
2018-03-16T20:40:59.956Z,92.10
2018-03-16T20:43:27.479Z,92.20
2018-03-16T20:45:54.982Z,92.10
2018-03-16T20:48:22.490Z,92.10
2018-03-16T20:50:50.004Z,92.10
2018-03-16T20:53:17.548Z,92.30
2018-03-16T20:55:45.070Z,92.30
2018-03-16T20:58:12.538Z,92.30
2018-03-16T21:00:40.099Z,92.50
2018-03-16T21:03:07.696Z,92.10
2018-03-16T21:05:35.443Z,92.10
2018-03-16T21:08:03.750Z,92.10
2018-03-16T21:10:32.028Z,92.30
2018-03-16T21:12:59.534Z,92.30
2018-03-16T21:15:27.003Z,92.50
2018-03-16T21:17:54.523Z,92.50
2018-03-16T21:20:22.845Z,92.60
2018-03-16T21:22:50.331Z,92.60
2018-03-16T21:25:17.812Z,92.60
2018-03-16T21:27:46.087Z,92.90
2018-03-16T21:30:14.338Z,93.60
2018-03-16T21:32:41.865Z,93.60
2018-03-16T21:35:09.333Z,93.30
2018-03-16T21:37:36.817Z,93.20
2018-03-16T21:40:04.374Z,93.30
2018-03-16T21:42:33.391Z,92.90
2018-03-16T21:45:01.632Z,92.90
2018-03-16T21:47:29.115Z,92.90
2018-03-16T21:49:57.387Z,92.80
2018-03-16T21:52:24.867Z,92.80
2018-03-16T21:54:52.342Z,93.00
2018-03-16T21:57:19.892Z,93.10
2018-03-16T21:59:47.530Z,93.20
2018-03-16T22:02:15.931Z,94.00
2018-03-16T22:04:43.384Z,93.70
2018-03-16T22:07:10.854Z,93.70
2018-03-16T22:09:38.419Z,94.20
2018-03-16T22:12:05.887Z,94.00
2018-03-16T22:14:33.350Z,94.30
2018-03-16T22:17:00.858Z,94.40
2018-03-16T22:19:29.090Z,94.60
2018-03-16T22:21:56.595Z,94.60
2018-03-16T22:24:24.875Z,94.80
2018-03-16T22:26:53.156Z,95.10
2018-03-16T22:29:21.392Z,95.00
2018-03-16T22:31:48.903Z,95.00
2018-03-16T22:34:16.395Z,94.90
2018-03-16T22:36:43.878Z,94.90
2018-03-16T22:39:11.379Z,94.80
2018-03-16T22:41:38.883Z,94.80
2018-03-16T22:44:06.370Z,94.80
2018-03-16T22:46:34.604Z,94.80
2018-03-16T22:49:02.183Z,94.80
2018-03-16T22:51:29.638Z,95.00
2018-03-16T22:53:57.126Z,94.90
2018-03-16T22:56:25.370Z,94.80
2018-03-16T22:58:52.968Z,94.80
2018-03-16T23:01:21.170Z,94.80
2018-03-16T23:03:48.694Z,94.80
2018-03-16T23:06:16.911Z,94.70
2018-03-16T23:08:44.400Z,94.70
2018-03-16T23:11:12.691Z,95.10
2018-03-16T23:13:40.939Z,94.90
2018-03-16T23:16:08.423Z,94.80
2018-03-16T23:18:35.877Z,94.80
2018-03-16T23:21:03.351Z,94.90
2018-03-16T23:23:31.597Z,95.20
2018-03-16T23:25:59.089Z,95.20
2018-03-16T23:28:27.343Z,95.30
2018-03-16T23:30:54.837Z,95.30
2018-03-16T23:33:22.346Z,95.40
2018-03-16T23:35:49.812Z,95.40
2018-03-16T23:38:17.404Z,95.60
2018-03-16T23:40:44.864Z,95.80
2018-03-16T23:43:12.350Z,95.50
2018-03-16T23:45:39.814Z,95.40
2018-03-16T23:48:07.317Z,95.40
2018-03-16T23:50:35.545Z,95.40
2018-03-16T23:53:03.049Z,95.40
2018-03-16T23:55:30.600Z,95.40
2018-03-16T23:57:58.163Z,95.50
